sensor_id;sensor_type;location;lat;lon;timestamp;pressure;altitude;pressure_sealevel;temperature;humidity
74422;BME280;62856;51.446;8.360;2022-08-19T00:01:58;97714.69;;;16.55;87.73
74422;BME280;62856;51.446;8.360;2022-08-19T00:04:32;97710.13;;;16.47;87.69
74422;BME280;62856;51.446;8.360;2022-08-19T00:06:58;97717.41;;;16.55;87.83
74422;BME280;62856;51.446;8.360;2022-08-19T00:09:27;97694.56;;;16.48;86.90
74422;BME280;62856;51.446;8.360;2022-08-19T00:11:54;97705.13;;;16.49;86.34
74422;BME280;62856;51.446;8.360;2022-08-19T00:14:21;97709.78;;;16.49;86.67
74422;BME280;62856;51.446;8.360;2022-08-19T00:16:47;97725.78;;;16.50;88.25
74422;BME280;62856;51.446;8.360;2022-08-19T00:19:14;97723.38;;;16.40;88.19
74422;BME280;62856;51.446;8.360;2022-08-19T00:21:40;97719.78;;;16.27;88.25
74422;BME280;62856;51.446;8.360;2022-08-19T00:24:08;97714.03;;;16.29;88.84
74422;BME280;62856;51.446;8.360;2022-08-19T00:26:34;97712.28;;;16.24;87.47
74422;BME280;62856;51.446;8.360;2022-08-19T00:29:00;97725.06;;;16.32;86.39
74422;BME280;62856;51.446;8.360;2022-08-19T00:31:26;97709.91;;;16.23;87.70
74422;BME280;62856;51.446;8.360;2022-08-19T00:33:53;97719.47;;;16.29;88.66
74422;BME280;62856;51.446;8.360;2022-08-19T00:36:19;97714.41;;;16.19;88.42
74422;BME280;62856;51.446;8.360;2022-08-19T00:38:44;97713.72;;;16.22;87.13
74422;BME280;62856;51.446;8.360;2022-08-19T00:41:13;97705.75;;;16.17;86.96
74422;BME280;62856;51.446;8.360;2022-08-19T00:43:40;97708.00;;;16.15;88.34
74422;BME280;62856;51.446;8.360;2022-08-19T00:46:06;97718.69;;;16.20;88.58
74422;BME280;62856;51.446;8.360;2022-08-19T00:48:33;97718.88;;;16.15;88.69
74422;BME280;62856;51.446;8.360;2022-08-19T00:50:59;97705.88;;;16.00;85.68
74422;BME280;62856;51.446;8.360;2022-08-19T00:53:27;97717.66;;;16.04;87.49
74422;BME280;62856;51.446;8.360;2022-08-19T00:55:55;97704.78;;;15.92;89.08
74422;BME280;62856;51.446;8.360;2022-08-19T00:58:24;97709.41;;;15.92;89.01
74422;BME280;62856;51.446;8.360;2022-08-19T01:00:52;97689.47;;;15.79;88.93
74422;BME280;62856;51.446;8.360;2022-08-19T01:03:19;97704.78;;;15.84;89.11
74422;BME280;62856;51.446;8.360;2022-08-19T01:05:45;97708.63;;;15.83;85.61
74422;BME280;62856;51.446;8.360;2022-08-19T01:08:15;97708.19;;;15.72;88.29
74422;BME280;62856;51.446;8.360;2022-08-19T01:10:48;97704.53;;;15.68;88.79
74422;BME280;62856;51.446;8.360;2022-08-19T01:13:17;97683.94;;;15.59;89.20
74422;BME280;62856;51.446;8.360;2022-08-19T01:15:48;97682.84;;;15.60;87.79
74422;BME280;62856;51.446;8.360;2022-08-19T01:18:17;97681.22;;;15.59;89.15
74422;BME280;62856;51.446;8.360;2022-08-19T01:20:43;97692.56;;;15.61;84.74
74422;BME280;62856;51.446;8.360;2022-08-19T01:23:09;97701.56;;;15.53;87.42
74422;BME280;62856;51.446;8.360;2022-08-19T01:25:47;97702.84;;;15.47;88.85
74422;BME280;62856;51.446;8.360;2022-08-19T01:28:26;97695.78;;;15.46;89.66
74422;BME280;62856;51.446;8.360;2022-08-19T01:30:53;97688.44;;;15.46;90.40
74422;BME280;62856;51.446;8.360;2022-08-19T01:33:20;97681.25;;;15.50;88.26
74422;BME280;62856;51.446;8.360;2022-08-19T01:35:46;97659.06;;;15.31;87.64
74422;BME280;62856;51.446;8.360;2022-08-19T01:38:24;97663.06;;;15.33;88.38
74422;BME280;62856;51.446;8.360;2022-08-19T01:40:49;97676.13;;;15.40;89.33
74422;BME280;62856;51.446;8.360;2022-08-19T01:43:15;97679.97;;;15.39;89.36
74422;BME280;62856;51.446;8.360;2022-08-19T01:45:41;97691.00;;;15.51;88.49
74422;BME280;62856;51.446;8.360;2022-08-19T01:48:07;97691.78;;;15.52;89.16
74422;BME280;62856;51.446;8.360;2022-08-19T01:50:34;97686.53;;;15.47;89.15
74422;BME280;62856;51.446;8.360;2022-08-19T01:53:01;97688.13;;;15.48;88.53
74422;BME280;62856;51.446;8.360;2022-08-19T01:55:27;97660.47;;;15.37;89.26
74422;BME280;62856;51.446;8.360;2022-08-19T01:58:02;97662.28;;;15.42;88.47
74422;BME280;62856;51.446;8.360;2022-08-19T02:00:30;97667.53;;;15.47;88.28
74422;BME280;62856;51.446;8.360;2022-08-19T02:02:56;97664.47;;;15.31;84.86
74422;BME280;62856;51.446;8.360;2022-08-19T02:05:22;97661.63;;;15.27;86.25
74422;BME280;62856;51.446;8.360;2022-08-19T02:07:48;97674.91;;;15.29;87.35
74422;BME280;62856;51.446;8.360;2022-08-19T02:10:18;97665.94;;;15.28;88.67
74422;BME280;62856;51.446;8.360;2022-08-19T02:12:44;97649.84;;;15.23;88.98
74422;BME280;62856;51.446;8.360;2022-08-19T02:15:09;97663.06;;;15.33;89.25
74422;BME280;62856;51.446;8.360;2022-08-19T02:17:35;97658.75;;;15.32;89.81
74422;BME280;62856;51.446;8.360;2022-08-19T02:20:00;97665.31;;;15.23;89.71
74422;BME280;62856;51.446;8.360;2022-08-19T02:22:26;97663.41;;;15.15;89.15
74422;BME280;62856;51.446;8.360;2022-08-19T02:24:52;97674.91;;;15.20;90.46
74422;BME280;62856;51.446;8.360;2022-08-19T02:27:18;97674.41;;;15.18;90.35
74422;BME280;62856;51.446;8.360;2022-08-19T02:29:46;97673.63;;;15.26;89.38
74422;BME280;62856;51.446;8.360;2022-08-19T02:32:11;97665.78;;;15.25;89.73
74422;BME280;62856;51.446;8.360;2022-08-19T02:34:37;97673.94;;;15.25;90.17
74422;BME280;62856;51.446;8.360;2022-08-19T02:37:02;97669.47;;;15.29;88.38
74422;BME280;62856;51.446;8.360;2022-08-19T02:39:27;97666.28;;;15.27;89.44
74422;BME280;62856;51.446;8.360;2022-08-19T02:41:53;97656.69;;;15.21;89.98
74422;BME280;62856;51.446;8.360;2022-08-19T02:44:18;97666.56;;;15.25;87.85
74422;BME280;62856;51.446;8.360;2022-08-19T02:46:46;97675.88;;;15.16;88.86
74422;BME280;62856;51.446;8.360;2022-08-19T02:49:12;97665.19;;;15.02;89.84
74422;BME280;62856;51.446;8.360;2022-08-19T02:51:43;97662.94;;;15.04;89.96
74422;BME280;62856;51.446;8.360;2022-08-19T02:54:10;97656.09;;;14.98;91.39
74422;BME280;62856;51.446;8.360;2022-08-19T02:56:38;97658.63;;;14.95;89.82
74422;BME280;62856;51.446;8.360;2022-08-19T02:59:05;97670.28;;;15.04;90.80
74422;BME280;62856;51.446;8.360;2022-08-19T03:01:35;97670.59;;;15.02;89.47
74422;BME280;62856;51.446;8.360;2022-08-19T03:04:03;97656.72;;;14.95;89.60
74422;BME280;62856;51.446;8.360;2022-08-19T03:06:30;97665.84;;;14.99;89.01
74422;BME280;62856;51.446;8.360;2022-08-19T03:08:56;97659.28;;;14.92;89.26
74422;BME280;62856;51.446;8.360;2022-08-19T03:11:22;97657.06;;;14.94;89.05
74422;BME280;62856;51.446;8.360;2022-08-19T03:13:48;97646.38;;;14.89;89.45
74422;BME280;62856;51.446;8.360;2022-08-19T03:16:16;97669.34;;;14.91;89.76
74422;BME280;62856;51.446;8.360;2022-08-19T03:18:42;97668.41;;;14.70;87.20
74422;BME280;62856;51.446;8.360;2022-08-19T03:21:07;97681.47;;;14.77;87.68
74422;BME280;62856;51.446;8.360;2022-08-19T03:23:33;97683.06;;;14.69;89.59
74422;BME280;62856;51.446;8.360;2022-08-19T03:25:59;97684.22;;;14.60;89.13
74422;BME280;62856;51.446;8.360;2022-08-19T03:28:29;97691.06;;;14.66;89.07
74422;BME280;62856;51.446;8.360;2022-08-19T03:31:02;97664.56;;;14.54;90.56
74422;BME280;62856;51.446;8.360;2022-08-19T03:33:29;97686.59;;;14.70;90.63
74422;BME280;62856;51.446;8.360;2022-08-19T03:36:02;97687.88;;;14.72;88.72
74422;BME280;62856;51.446;8.360;2022-08-19T03:38:28;97689.31;;;14.61;88.06
74422;BME280;62856;51.446;8.360;2022-08-19T03:40:54;97681.47;;;14.51;89.03
74422;BME280;62856;51.446;8.360;2022-08-19T03:43:19;97697.91;;;14.55;89.74
74422;BME280;62856;51.446;8.360;2022-08-19T03:45:45;97668.88;;;14.38;91.23
74422;BME280;62856;51.446;8.360;2022-08-19T03:48:10;97681.63;;;14.38;91.11
74422;BME280;62856;51.446;8.360;2022-08-19T03:50:39;97694.38;;;14.46;90.96
74422;BME280;62856;51.446;8.360;2022-08-19T03:53:06;97691.03;;;14.40;91.84
74422;BME280;62856;51.446;8.360;2022-08-19T03:55:32;97694.38;;;14.46;91.92
74422;BME280;62856;51.446;8.360;2022-08-19T03:57:57;97700.59;;;14.46;91.38
74422;BME280;62856;51.446;8.360;2022-08-19T04:00:23;97695.34;;;14.41;91.78
74422;BME280;62856;51.446;8.360;2022-08-19T04:02:48;97701.88;;;14.40;90.74
74422;BME280;62856;51.446;8.360;2022-08-19T04:05:14;97694.06;;;14.39;88.68
74422;BME280;62856;51.446;8.360;2022-08-19T04:07:40;97687.50;;;14.31;90.95
74422;BME280;62856;51.446;8.360;2022-08-19T04:10:05;97700.94;;;14.36;91.04
74422;BME280;62856;51.446;8.360;2022-08-19T04:12:31;97692.38;;;14.20;91.81
74422;BME280;62856;51.446;8.360;2022-08-19T04:14:57;97694.94;;;14.17;91.50
74422;BME280;62856;51.446;8.360;2022-08-19T04:17:23;97701.47;;;14.16;90.84
74422;BME280;62856;51.446;8.360;2022-08-19T04:19:48;97706.91;;;14.24;90.90
74422;BME280;62856;51.446;8.360;2022-08-19T04:22:14;97706.09;;;14.15;90.74
74422;BME280;62856;51.446;8.360;2022-08-19T04:24:39;97717.28;;;14.22;90.71
74422;BME280;62856;51.446;8.360;2022-08-19T04:27:05;97706.25;;;14.19;91.23
74422;BME280;62856;51.446;8.360;2022-08-19T04:29:33;97706.91;;;14.16;92.10
74422;BME280;62856;51.446;8.360;2022-08-19T04:31:59;97707.34;;;14.09;86.64
74422;BME280;62856;51.446;8.360;2022-08-19T04:34:27;97724.56;;;14.05;87.92
74422;BME280;62856;51.446;8.360;2022-08-19T04:36:54;97709.22;;;13.92;90.02
74422;BME280;62856;51.446;8.360;2022-08-19T04:39:29;97704.75;;;13.96;90.60
74422;BME280;62856;51.446;8.360;2022-08-19T04:42:16;97717.03;;;14.02;90.87
74422;BME280;62856;51.446;8.360;2022-08-19T04:45:00;97723.28;;;14.11;91.00
74422;BME280;62856;51.446;8.360;2022-08-19T04:47:28;97704.78;;;14.04;91.08
74422;BME280;62856;51.446;8.360;2022-08-19T04:49:53;97711.69;;;14.19;92.31
74422;BME280;62856;51.446;8.360;2022-08-19T04:52:18;97706.41;;;14.14;92.30
74422;BME280;62856;51.446;8.360;2022-08-19T04:54:43;97725.25;;;14.19;89.14
74422;BME280;62856;51.446;8.360;2022-08-19T04:57:09;97700.50;;;14.03;89.77
74422;BME280;62856;51.446;8.360;2022-08-19T04:59:36;97724.00;;;14.25;90.96
74422;BME280;62856;51.446;8.360;2022-08-19T05:02:07;97722.75;;;14.31;90.80
74422;BME280;62856;51.446;8.360;2022-08-19T05:04:33;97725.00;;;14.38;90.83
74422;BME280;62856;51.446;8.360;2022-08-19T05:07:00;97727.72;;;14.46;91.89
74422;BME280;62856;51.446;8.360;2022-08-19T05:09:26;97721.97;;;14.48;91.32
74422;BME280;62856;51.446;8.360;2022-08-19T05:11:51;97729.03;;;14.57;91.18
74422;BME280;62856;51.446;8.360;2022-08-19T05:14:18;97725.84;;;14.64;91.64
74422;BME280;62856;51.446;8.360;2022-08-19T05:16:44;97733.03;;;14.77;90.72
74422;BME280;62856;51.446;8.360;2022-08-19T05:19:10;97714.38;;;14.75;91.30
74422;BME280;62856;51.446;8.360;2022-08-19T05:21:54;97737.50;;;14.98;91.51
74422;BME280;62856;51.446;8.360;2022-08-19T05:24:41;97720.75;;;14.96;90.22
74422;BME280;62856;51.446;8.360;2022-08-19T05:27:06;97735.44;;;15.21;88.90
74422;BME280;62856;51.446;8.360;2022-08-19T05:29:33;97716.75;;;15.19;89.04
74422;BME280;62856;51.446;8.360;2022-08-19T05:32:00;97710.66;;;15.31;88.57
74422;BME280;62856;51.446;8.360;2022-08-19T05:34:26;97722.97;;;15.46;87.49
74422;BME280;62856;51.446;8.360;2022-08-19T05:36:57;97697.25;;;15.43;86.22
74422;BME280;62856;51.446;8.360;2022-08-19T05:39:27;97707.75;;;15.62;86.26
74422;BME280;62856;51.446;8.360;2022-08-19T05:41:56;97706.25;;;15.73;85.96
74422;BME280;62856;51.446;8.360;2022-08-19T05:44:26;97674.19;;;15.58;87.01
74422;BME280;62856;51.446;8.360;2022-08-19T05:46:52;97718.69;;;15.91;87.39
74422;BME280;62856;51.446;8.360;2022-08-19T05:49:18;97698.19;;;15.93;88.32
74422;BME280;62856;51.446;8.360;2022-08-19T05:51:45;97712.50;;;16.11;86.51
74422;BME280;62856;51.446;8.360;2022-08-19T05:54:10;97685.84;;;16.04;86.18
74422;BME280;62856;51.446;8.360;2022-08-19T05:56:38;97705.56;;;16.22;87.58
74422;BME280;62856;51.446;8.360;2022-08-19T05:59:05;97693.44;;;16.19;87.62
74422;BME280;62856;51.446;8.360;2022-08-19T06:01:37;97696.09;;;16.28;86.92
74422;BME280;62856;51.446;8.360;2022-08-19T06:04:03;97706.75;;;16.42;87.67
74422;BME280;62856;51.446;8.360;2022-08-19T06:06:29;97707.06;;;16.40;87.88
74422;BME280;62856;51.446;8.360;2022-08-19T06:08:55;97709.63;;;16.45;86.77
74422;BME280;62856;51.446;8.360;2022-08-19T06:11:41;97710.38;;;16.54;86.83
74422;BME280;62856;51.446;8.360;2022-08-19T06:14:11;97704.75;;;16.59;86.10
74422;BME280;62856;51.446;8.360;2022-08-19T06:16:40;97684.09;;;16.58;86.94
74422;BME280;62856;51.446;8.360;2022-08-19T06:19:07;97705.53;;;16.80;87.50
74422;BME280;62856;51.446;8.360;2022-08-19T06:21:35;97701.72;;;16.81;86.52
74422;BME280;62856;51.446;8.360;2022-08-19T06:24:06;97702.69;;;16.97;86.25
74422;BME280;62856;51.446;8.360;2022-08-19T06:26:35;97715.38;;;17.14;86.76
74422;BME280;62856;51.446;8.360;2022-08-19T06:29:05;97723.91;;;17.24;85.24
74422;BME280;62856;51.446;8.360;2022-08-19T06:31:32;97715.66;;;17.33;85.97
74422;BME280;62856;51.446;8.360;2022-08-19T06:34:00;97704.56;;;17.38;85.10
74422;BME280;62856;51.446;8.360;2022-08-19T06:36:30;97706.41;;;17.46;84.62
74422;BME280;62856;51.446;8.360;2022-08-19T06:39:18;97684.75;;;17.50;84.79
74422;BME280;62856;51.446;8.360;2022-08-19T06:41:46;97696.59;;;17.66;83.67
74422;BME280;62856;51.446;8.360;2022-08-19T06:44:12;97701.63;;;17.76;83.74
74422;BME280;62856;51.446;8.360;2022-08-19T06:46:39;97696.97;;;17.88;82.99
74422;BME280;62856;51.446;8.360;2022-08-19T06:49:06;97708.69;;;18.01;82.20
74422;BME280;62856;51.446;8.360;2022-08-19T06:51:34;97689.59;;;18.01;81.81
74422;BME280;62856;51.446;8.360;2022-08-19T06:53:59;97694.59;;;18.11;82.06
74422;BME280;62856;51.446;8.360;2022-08-19T06:56:27;97694.72;;;18.14;81.73
74422;BME280;62856;51.446;8.360;2022-08-19T06:59:05;97692.22;;;18.21;81.71
74422;BME280;62856;51.446;8.360;2022-08-19T07:01:36;97703.34;;;18.41;81.71
74422;BME280;62856;51.446;8.360;2022-08-19T07:04:04;97698.13;;;18.48;82.02
74422;BME280;62856;51.446;8.360;2022-08-19T07:06:29;97702.81;;;18.47;81.42
74422;BME280;62856;51.446;8.360;2022-08-19T07:08:57;97703.69;;;18.51;80.63
74422;BME280;62856;51.446;8.360;2022-08-19T07:11:23;97718.47;;;18.62;80.45
74422;BME280;62856;51.446;8.360;2022-08-19T07:13:48;97717.56;;;18.58;80.31
74422;BME280;62856;51.446;8.360;2022-08-19T07:16:17;97729.63;;;18.57;80.34
74422;BME280;62856;51.446;8.360;2022-08-19T15:45:21;97695.72;;;26.82;40.69
74422;BME280;62856;51.446;8.360;2022-08-19T15:47:47;97720.63;;;26.82;41.07
74422;BME280;62856;51.446;8.360;2022-08-19T15:50:19;97692.59;;;26.27;40.49
74422;BME280;62856;51.446;8.360;2022-08-19T15:52:50;97696.94;;;26.46;42.07
74422;BME280;62856;51.446;8.360;2022-08-19T15:55:21;97704.44;;;26.67;40.99
74422;BME280;62856;51.446;8.360;2022-08-19T15:57:47;97669.66;;;26.69;41.13
74422;BME280;62856;51.446;8.360;2022-08-19T16:00:31;97668.50;;;26.56;39.72
74422;BME280;62856;51.446;8.360;2022-08-19T16:03:15;97666.53;;;26.36;39.71
74422;BME280;62856;51.446;8.360;2022-08-19T16:05:59;97711.16;;;26.41;41.19
74422;BME280;62856;51.446;8.360;2022-08-19T16:08:43;97696.97;;;26.25;40.40
74422;BME280;62856;51.446;8.360;2022-08-19T16:11:12;97698.53;;;26.12;40.54
74422;BME280;62856;51.446;8.360;2022-08-19T16:13:38;97692.56;;;25.99;41.84
74422;BME280;62856;51.446;8.360;2022-08-19T16:16:04;97683.06;;;25.83;41.58
74422;BME280;62856;51.446;8.360;2022-08-19T16:18:30;97669.22;;;25.62;41.94
74422;BME280;62856;51.446;8.360;2022-08-19T16:20:55;97689.75;;;25.71;41.80
74422;BME280;62856;51.446;8.360;2022-08-19T16:23:21;97696.84;;;25.72;44.02
74422;BME280;62856;51.446;8.360;2022-08-19T16:25:46;97699.59;;;25.62;42.27
74422;BME280;62856;51.446;8.360;2022-08-19T16:28:12;97689.75;;;25.71;43.48
74422;BME280;62856;51.446;8.360;2022-08-19T16:30:39;97679.50;;;25.72;42.07
74422;BME280;62856;51.446;8.360;2022-08-19T16:33:07;97709.88;;;25.72;41.43
74422;BME280;62856;51.446;8.360;2022-08-19T16:35:33;97672.34;;;25.50;41.38
74422;BME280;62856;51.446;8.360;2022-08-19T16:37:58;97659.25;;;25.29;41.58
74422;BME280;62856;51.446;8.360;2022-08-19T16:40:24;97674.69;;;25.44;43.03
74422;BME280;62856;51.446;8.360;2022-08-19T16:42:50;97650.91;;;25.18;42.50
74422;BME280;62856;51.446;8.360;2022-08-19T16:45:16;97656.78;;;25.06;42.54
74422;BME280;62856;51.446;8.360;2022-08-19T16:47:43;97655.59;;;25.07;43.35
74422;BME280;62856;51.446;8.360;2022-08-19T16:50:09;97683.72;;;25.34;44.29
74422;BME280;62856;51.446;8.360;2022-08-19T16:52:34;97669.47;;;25.25;42.62
74422;BME280;62856;51.446;8.360;2022-08-19T16:55:01;97658.81;;;25.20;43.48
74422;BME280;62856;51.446;8.360;2022-08-19T16:57:26;97697.53;;;25.38;43.40
74422;BME280;62856;51.446;8.360;2022-08-19T16:59:52;97699.41;;;25.16;42.95
74422;BME280;62856;51.446;8.360;2022-08-19T17:02:19;97701.31;;;25.01;43.27
74422;BME280;62856;51.446;8.360;2022-08-19T17:04:45;97695.66;;;24.84;44.68
74422;BME280;62856;51.446;8.360;2022-08-19T17:07:13;97713.81;;;24.85;45.72
74422;BME280;62856;51.446;8.360;2022-08-19T17:09:39;97678.03;;;24.38;44.77
74422;BME280;62856;51.446;8.360;2022-08-19T17:12:04;97683.09;;;24.32;45.80
74422;BME280;62856;51.446;8.360;2022-08-19T17:14:32;97702.38;;;24.32;45.85
74422;BME280;62856;51.446;8.360;2022-08-19T17:16:58;97696.03;;;24.24;46.07
74422;BME280;62856;51.446;8.360;2022-08-19T17:19:24;97671.31;;;23.91;47.14
74422;BME280;62856;51.446;8.360;2022-08-19T17:21:50;97610.41;;;23.53;46.70
74422;BME280;62856;51.446;8.360;2022-08-19T17:24:15;97690.16;;;23.89;46.27
74422;BME280;62856;51.446;8.360;2022-08-19T17:26:41;97651.38;;;23.61;46.61
74422;BME280;62856;51.446;8.360;2022-08-19T17:29:06;97694.47;;;23.87;48.49
74422;BME280;62856;51.446;8.360;2022-08-19T17:31:31;97691.28;;;23.81;47.37
74422;BME280;62856;51.446;8.360;2022-08-19T17:33:58;97693.16;;;23.74;47.66
74422;BME280;62856;51.446;8.360;2022-08-19T17:36:26;97696.19;;;23.62;47.22
74422;BME280;62856;51.446;8.360;2022-08-19T17:38:53;97686.63;;;23.49;47.80
74422;BME280;62856;51.446;8.360;2022-08-19T17:41:19;97694.50;;;23.50;48.07
74422;BME280;62856;51.446;8.360;2022-08-19T17:43:45;97688.19;;;23.50;49.39
74422;BME280;62856;51.446;8.360;2022-08-19T17:46:11;97698.38;;;23.49;49.33
74422;BME280;62856;51.446;8.360;2022-08-19T17:48:40;97656.38;;;23.19;49.48
74422;BME280;62856;51.446;8.360;2022-08-19T17:51:18;97681.00;;;23.38;49.74
74422;BME280;62856;51.446;8.360;2022-08-19T17:53:45;97662.28;;;23.21;50.12
74422;BME280;62856;51.446;8.360;2022-08-19T17:56:11;97678.94;;;23.32;50.49
74422;BME280;62856;51.446;8.360;2022-08-19T17:58:39;97667.78;;;23.21;51.41
74422;BME280;62856;51.446;8.360;2022-08-19T18:01:09;97679.25;;;23.26;54.00
74422;BME280;62856;51.446;8.360;2022-08-19T18:03:36;97643.41;;;22.86;49.87
74422;BME280;62856;51.446;8.360;2022-08-19T18:06:01;97659.97;;;22.93;49.90
74422;BME280;62856;51.446;8.360;2022-08-19T18:08:26;97700.38;;;23.19;49.35
74422;BME280;62856;51.446;8.360;2022-08-19T18:10:52;97677.44;;;23.08;53.48
74422;BME280;62856;51.446;8.360;2022-08-19T18:13:18;97686.97;;;23.14;51.63
74422;BME280;62856;51.446;8.360;2022-08-19T18:15:44;97706.38;;;23.28;49.80
74422;BME280;62856;51.446;8.360;2022-08-19T18:18:09;97693.59;;;23.13;49.77
74422;BME280;62856;51.446;8.360;2022-08-19T18:20:35;97687.75;;;23.14;51.80
74422;BME280;62856;51.446;8.360;2022-08-19T18:23:02;97654.44;;;22.90;49.35
74422;BME280;62856;51.446;8.360;2022-08-19T18:25:27;97705.84;;;23.15;50.07
74422;BME280;62856;51.446;8.360;2022-08-19T18:27:56;97669.41;;;22.92;50.16
74422;BME280;62856;51.446;8.360;2022-08-19T18:30:22;97651.03;;;22.70;50.30
74422;BME280;62856;51.446;8.360;2022-08-19T18:32:49;97701.69;;;22.99;50.09
74422;BME280;62856;51.446;8.360;2022-08-19T18:35:21;97720.13;;;22.98;50.09
74422;BME280;62856;51.446;8.360;2022-08-19T18:37:50;97718.47;;;22.90;52.92
74422;BME280;62856;51.446;8.360;2022-08-19T18:40:19;97717.47;;;22.76;52.16
74422;BME280;62856;51.446;8.360;2022-08-19T18:43:04;97713.59;;;22.54;51.71
74422;BME280;62856;51.446;8.360;2022-08-19T18:45:48;97707.75;;;22.33;53.17
74422;BME280;62856;51.446;8.360;2022-08-19T18:48:33;97706.06;;;22.25;51.42
74422;BME280;62856;51.446;8.360;2022-08-19T18:51:17;97739.13;;;22.32;52.59
74422;BME280;62856;51.446;8.360;2022-08-19T18:53:45;97712.03;;;22.08;52.09
74422;BME280;62856;51.446;8.360;2022-08-19T18:56:12;97734.13;;;22.15;51.97
74422;BME280;62856;51.446;8.360;2022-08-19T18:58:39;97702.28;;;21.88;52.86
74422;BME280;62856;51.446;8.360;2022-08-19T19:01:17;97703.75;;;21.82;52.25
74422;BME280;62856;51.446;8.360;2022-08-19T19:03:46;97746.75;;;21.97;53.77
74422;BME280;62856;51.446;8.360;2022-08-19T19:06:14;97729.00;;;21.72;55.88
74422;BME280;62856;51.446;8.360;2022-08-19T19:08:42;97751.63;;;21.65;55.92
74422;BME280;62856;51.446;8.360;2022-08-19T19:11:09;97711.22;;;21.24;57.04
74422;BME280;62856;51.446;8.360;2022-08-19T19:13:35;97742.03;;;21.37;55.89
74422;BME280;62856;51.446;8.360;2022-08-19T19:16:01;97755.75;;;21.37;57.71
74422;BME280;62856;51.446;8.360;2022-08-19T19:18:27;97761.28;;;21.40;61.22
74422;BME280;62856;51.446;8.360;2022-08-19T19:20:53;97707.50;;;20.97;58.67
74422;BME280;62856;51.446;8.360;2022-08-19T19:23:19;97771.69;;;21.31;56.61
74422;BME280;62856;51.446;8.360;2022-08-19T19:25:45;97766.28;;;21.15;55.84
74422;BME280;62856;51.446;8.360;2022-08-19T19:28:11;97777.75;;;21.21;59.68
74422;BME280;62856;51.446;8.360;2022-08-19T19:30:37;97729.75;;;20.77;56.73
74422;BME280;62856;51.446;8.360;2022-08-19T19:33:04;97728.09;;;20.72;56.94
74422;BME280;62856;51.446;8.360;2022-08-19T19:35:30;97731.38;;;20.62;56.37
74422;BME280;62856;51.446;8.360;2022-08-19T19:37:57;97733.34;;;20.62;56.56
74422;BME280;62856;51.446;8.360;2022-08-19T19:40:23;97783.28;;;20.90;56.81
74422;BME280;62856;51.446;8.360;2022-08-19T19:42:49;97702.47;;;20.30;57.41
74422;BME280;62856;51.446;8.360;2022-08-19T19:45:16;97740.59;;;20.54;57.98
74422;BME280;62856;51.446;8.360;2022-08-19T19:47:42;97688.66;;;20.11;61.64
74422;BME280;62856;51.446;8.360;2022-08-19T19:50:12;97772.28;;;20.55;58.92
74422;BME280;62856;51.446;8.360;2022-08-19T19:52:38;97750.56;;;20.31;60.24
74422;BME280;62856;51.446;8.360;2022-08-19T19:55:04;97746.69;;;20.32;61.16
74422;BME280;62856;51.446;8.360;2022-08-19T19:57:31;97821.06;;;20.65;59.27
74422;BME280;62856;51.446;8.360;2022-08-19T19:59:56;97810.63;;;20.55;63.20
74422;BME280;62856;51.446;8.360;2022-08-19T20:02:22;97784.84;;;20.41;62.84
74422;BME280;62856;51.446;8.360;2022-08-19T20:04:49;97769.13;;;20.22;61.74
74422;BME280;62856;51.446;8.360;2022-08-19T20:07:15;97799.94;;;20.34;63.80
74422;BME280;62856;51.446;8.360;2022-08-19T20:09:40;97826.91;;;20.48;62.53
74422;BME280;62856;51.446;8.360;2022-08-19T20:12:06;97810.56;;;20.36;62.29
74422;BME280;62856;51.446;8.360;2022-08-19T20:14:32;97790.44;;;20.16;65.76
74422;BME280;62856;51.446;8.360;2022-08-19T20:17:01;97777.75;;;20.08;66.88
74422;BME280;62856;51.446;8.360;2022-08-19T20:19:31;97778.78;;;20.04;64.30
74422;BME280;62856;51.446;8.360;2022-08-19T20:22:02;97814.97;;;20.25;64.64
74422;BME280;62856;51.446;8.360;2022-08-19T20:24:32;97827.56;;;20.14;63.55
74422;BME280;62856;51.446;8.360;2022-08-19T20:27:00;97788.47;;;19.86;66.41
74422;BME280;62856;51.446;8.360;2022-08-19T20:29:26;97783.31;;;19.69;66.70
74422;BME280;62856;51.446;8.360;2022-08-19T20:31:52;97824.47;;;19.88;68.03
74422;BME280;62856;51.446;8.360;2022-08-19T20:34:17;97836.84;;;19.82;68.97
74422;BME280;62856;51.446;8.360;2022-08-19T20:36:43;97835.94;;;19.78;67.33
74422;BME280;62856;51.446;8.360;2022-08-19T20:39:09;97842.09;;;19.75;68.16
74422;BME280;62856;51.446;8.360;2022-08-19T20:41:36;97800.28;;;19.34;68.27
74422;BME280;62856;51.446;8.360;2022-08-19T20:44:02;97781.69;;;19.12;65.95
74422;BME280;62856;51.446;8.360;2022-08-19T20:46:29;97799.75;;;19.17;65.61
74422;BME280;62856;51.446;8.360;2022-08-19T20:48:55;97848.13;;;19.41;68.69
74422;BME280;62856;51.446;8.360;2022-08-19T20:51:21;97842.91;;;19.23;66.97
74422;BME280;62856;51.446;8.360;2022-08-19T20:53:46;97824.28;;;19.01;69.07
74422;BME280;62856;51.446;8.360;2022-08-19T20:56:11;97846.91;;;19.14;70.83
74422;BME280;62856;51.446;8.360;2022-08-19T20:58:36;97780.38;;;18.70;67.53
74422;BME280;62856;51.446;8.360;2022-08-19T21:01:03;97855.66;;;19.19;65.41
74422;BME280;62856;51.446;8.360;2022-08-19T21:03:33;97860.34;;;19.19;68.87
74422;BME280;62856;51.446;8.360;2022-08-19T21:05:58;97843.75;;;19.00;69.77
74422;BME280;62856;51.446;8.360;2022-08-19T21:08:24;97873.44;;;19.13;69.59
74422;BME280;62856;51.446;8.360;2022-08-19T21:10:51;97846.56;;;18.91;69.66
74422;BME280;62856;51.446;8.360;2022-08-19T21:13:20;97854.09;;;18.94;70.92
74422;BME280;62856;51.446;8.360;2022-08-19T21:15:46;97863.53;;;18.97;70.90
74422;BME280;62856;51.446;8.360;2022-08-19T21:18:15;97871.16;;;18.91;70.58
74422;BME280;62856;51.446;8.360;2022-08-19T21:20:41;97847.03;;;18.69;70.39
74422;BME280;62856;51.446;8.360;2022-08-19T21:23:12;97867.09;;;18.85;70.42
74422;BME280;62856;51.446;8.360;2022-08-19T21:25:38;97824.63;;;18.52;69.78
74422;BME280;62856;51.446;8.360;2022-08-19T21:28:04;97842.81;;;18.48;66.90
74422;BME280;62856;51.446;8.360;2022-08-19T21:30:30;97864.56;;;18.56;66.98